Recovery 1 — WDD9404 — position and weather

sailwx.info

Track history (hours):
 
Tides and Currents Weather Stations Pressure Air Temp Water Temp Dewpoint Dewpoint Depression Visibility Wind Speed Wind Dir Waves Ship Positions

Recovery 1

Owner: Marine Spill Response Corporation, Everett, WA. More information available from US FCC via Universal Licensing System and Coast Guard Vessel Documentation Center.

Last reported at 2018-Apr-19 19:47 UTC. Time now 2018-Apr-20 02:53 UTC.
Position N 33°44' W 118°16'.

Length 28 m.

Type: Pollution control. MMSI: 367310950.

Date/timePositionNaut miles runAvg speedWind from/ knotsBaromVisibWave heightAir tempDewpointWater temp
2018-Apr-19 19:47N 33°44' W 118°16'1 2.2
2018-Apr-19 19:29N 33°43' W 118°16'3 6.1
2018-Apr-19 18:58N 33°44' W 118°12'0 0.2
2018-Apr-19 18:31N 33°44' W 118°12'0 0.5
2018-Apr-19 18:01N 33°44' W 118°13'3 5.0
2018-Apr-19 17:31N 33°43' W 118°15'1 2.3
2018-Apr-19 17:00N 33°43' W 118°14'0 0.2
2018-Apr-19 16:30N 33°44' W 118°14'2 3.9
2018-Apr-19 16:00N 33°43' W 118°16'  
2018-Apr-10 18:14N 33°44' W 118°16'0 1.4
2018-Apr-10 18:00N 33°44' W 118°16'3 6.2
2018-Apr-10 17:30N 33°43' W 118°13'2 4.2
2018-Apr-10 17:00N 33°44' W 118°10'0 0.4
2018-Apr-10 16:30N 33°44' W 118°10'1 1.5
2018-Apr-10 16:00N 33°44' W 118°11'4 8.1
2018-Apr-10 15:30N 33°43' W 118°16'  
Track history (hours):
 
Tides and Currents Weather Stations Pressure Air Temp Water Temp Dewpoint Dewpoint Depression Visibility Wind Speed Wind Dir Waves Ship Positions

Recovery 1

Owner: Marine Spill Response Corporation, Everett, WA. More information available from US FCC via Universal Licensing System and Coast Guard Vessel Documentation Center.

Last reported at 2018-Apr-19 19:47 UTC. Time now 2018-Apr-20 02:53 UTC.
Position N 33°44' W 118°16'.

Length 28 m.

Type: Pollution control. MMSI: 367310950.

Date/timePositionNaut miles runAvg speedWind from/ knotsBaromVisibWave heightAir tempDewpointWater temp
2018-Apr-19 19:47N 33°44' W 118°16'1 2.2
2018-Apr-19 19:29N 33°43' W 118°16'3 6.1
2018-Apr-19 18:58N 33°44' W 118°12'0 0.2
2018-Apr-19 18:31N 33°44' W 118°12'0 0.5
2018-Apr-19 18:01N 33°44' W 118°13'3 5.0
2018-Apr-19 17:31N 33°43' W 118°15'1 2.3
2018-Apr-19 17:00N 33°43' W 118°14'0 0.2
2018-Apr-19 16:30N 33°44' W 118°14'2 3.9
2018-Apr-19 16:00N 33°43' W 118°16'  
2018-Apr-10 18:14N 33°44' W 118°16'0 1.4
2018-Apr-10 18:00N 33°44' W 118°16'3 6.2
2018-Apr-10 17:30N 33°43' W 118°13'2 4.2
2018-Apr-10 17:00N 33°44' W 118°10'0 0.4
2018-Apr-10 16:30N 33°44' W 118°10'1 1.5
2018-Apr-10 16:00N 33°44' W 118°11'4 8.1
2018-Apr-10 15:30N 33°43' W 118°16'  

Dump ship's entire track history